Time;durP1;ratioP1;P1;durP2;ratioP2;P2;SDS_P1;SDS_P2;PMS_P1;PMS_P2;Temp;Humidity;BMP_temperature;BMP_pressure;BME280_temperature;BME280_humidity;BME280_pressure;Samples;Min_cycle;Max_cycle;Signal;HPM_P1;HPM_P2
2023/01/10 00:00:20;;;;;;;0.90;0.67;;;;;;;4.85;100.00;95888.00;4978024;28;20241;-71
2023/01/10 00:02:47;;;;;;;1.13;0.80;;;;;;;4.74;100.00;95894.41;4978464;28;20203;-71
2023/01/10 00:05:15;;;;;;;3.90;1.20;;;;;;;4.94;100.00;95881.84;4977317;28;20213;-71
2023/01/10 00:07:41;;;;;;;4.00;0.83;;;;;;;4.95;100.00;95888.72;4977710;28;20227;-71
2023/01/10 00:10:09;;;;;;;0.53;0.50;;;;;;;4.85;100.00;95890.59;4977736;28;20215;-71
2023/01/10 00:15:19;;;;;;;1.33;0.93;;;;;;;4.87;100.00;95896.50;4976302;28;20225;-71
2023/01/10 00:17:46;;;;;;;4.40;1.10;;;;;;;4.94;100.00;95904.56;4978449;28;20698;-70
2023/01/10 00:20:13;;;;;;;2.93;1.27;;;;;;;4.98;100.00;95900.66;4977770;28;20684;-71
2023/01/10 00:22:40;;;;;;;1.27;1.07;;;;;;;4.99;100.00;95910.94;4977705;28;20211;-71
2023/01/10 00:25:07;;;;;;;1.13;0.80;;;;;;;4.83;100.00;95913.41;4976589;28;20216;-71
2023/01/10 00:27:35;;;;;;;1.57;1.17;;;;;;;4.95;100.00;95911.38;4978596;28;20238;-70
2023/01/10 00:30:09;;;;;;;3.83;1.13;;;;;;;4.86;100.00;95918.34;4977446;28;20645;-71
2023/01/10 00:32:36;;;;;;;11.23;0.90;;;;;;;4.77;100.00;95923.63;4977540;28;20211;-70
2023/01/10 00:35:06;;;;;;;0.73;0.73;;;;;;;4.83;100.00;95923.84;4976648;28;20210;-70
2023/01/10 00:37:32;;;;;;;7.30;1.23;;;;;;;4.83;100.00;95923.03;4977539;28;20608;-70
2023/01/10 00:40:00;;;;;;;3.13;1.37;;;;;;;4.87;100.00;95927.81;4977202;28;20579;-70
2023/01/10 00:45:11;;;;;;;3.40;1.50;;;;;;;4.54;100.00;95919.00;4975906;28;20346;-70
2023/01/10 00:47:37;;;;;;;2.00;1.10;;;;;;;4.58;100.00;95929.03;4977566;28;20825;-71
2023/01/10 00:50:05;;;;;;;1.27;1.10;;;;;;;4.51;100.00;95929.75;4980026;28;20203;-71
2023/01/10 00:52:32;;;;;;;7.70;1.53;;;;;;;4.36;100.00;95932.03;4981439;28;20246;-71
2023/01/10 00:55:00;;;;;;;1.10;0.90;;;;;;;4.33;100.00;95931.53;4979209;28;20794;-70
2023/01/10 00:57:26;;;;;;;1.60;1.37;;;;;;;4.30;100.00;95939.63;4981455;28;20226;-71
2023/01/10 00:59:52;;;;;;;5.63;1.23;;;;;;;4.41;100.00;95936.81;4981533;28;20217;-70
2023/01/10 01:02:19;;;;;;;2.43;1.37;;;;;;;4.31;100.00;95946.47;4981336;28;20211;-70
2023/01/10 01:04:45;;;;;;;2.00;1.40;;;;;;;4.38;100.00;95947.56;4980960;28;20217;-70
2023/01/10 01:07:12;;;;;;;1.17;0.77;;;;;;;4.26;100.00;95954.75;4981060;28;20235;-70
2023/01/10 01:10:25;;;;;;;2.50;0.70;;;;;;;4.43;100.00;95969.63;4981373;28;20225;-70
2023/01/10 01:12:26;;;;;;;1.60;1.30;;;;;;;4.62;100.00;95971.28;4980838;28;20604;-70
2023/01/10 01:14:53;;;;;;;1.43;1.10;;;;;;;4.58;100.00;95964.72;4980284;28;20211;-70
2023/01/10 01:17:19;;;;;;;1.70;1.20;;;;;;;4.54;100.00;95971.19;4980344;28;20238;-70
2023/01/10 01:19:45;;;;;;;3.30;1.40;;;;;;;4.49;100.00;95976.03;4981561;28;20210;-70
2023/01/10 01:22:12;;;;;;;1.77;1.37;;;;;;;4.53;100.00;95988.66;4980612;28;20206;-70
2023/01/10 01:24:39;;;;;;;2.43;1.40;;;;;;;4.46;100.00;95998.00;4980124;28;20210;-70
2023/01/10 01:27:05;;;;;;;1.83;1.27;;;;;;;4.51;100.00;95995.78;4980744;28;20230;-70
2023/01/10 01:29:33;;;;;;;2.23;1.30;;;;;;;4.57;100.00;96003.03;4981829;28;20214;-70
2023/01/10 01:31:59;;;;;;;1.67;1.40;;;;;;;4.52;100.00;96012.25;4980140;28;20238;-70
2023/01/10 01:34:27;;;;;;;3.10;1.57;;;;;;;4.59;100.00;96006.31;4980441;28;20210;-70
2023/01/10 01:36:55;;;;;;;2.37;1.63;;;;;;;4.66;100.00;96014.38;4980188;28;20227;-71
2023/01/10 01:39:22;;;;;;;2.13;1.60;;;;;;;4.63;100.00;96023.31;4980696;28;20211;-70
2023/01/10 01:41:57;;;;;;;2.93;1.90;;;;;;;4.45;100.00;96030.28;4980610;28;20205;-70
2023/01/10 01:44:29;;;;;;;5.20;1.67;;;;;;;4.61;100.00;96040.06;4977206;28;20206;-71
2023/01/10 01:47:02;;;;;;;5.00;2.00;;;;;;;4.86;100.00;96038.44;4979995;28;20227;-70
2023/01/10 01:49:32;;;;;;;2.93;1.90;;;;;;;4.76;100.00;96041.22;4979757;28;20757;-70
2023/01/10 01:52:02;;;;;;;2.77;1.80;;;;;;;4.84;100.00;96053.41;4979640;28;20237;-71
2023/01/10 01:54:31;;;;;;;3.00;1.90;;;;;;;4.82;100.00;96049.28;4978479;28;20221;-70
2023/01/10 01:57:02;;;;;;;4.27;2.00;;;;;;;4.85;100.00;96055.06;4979732;28;20235;-70
2023/01/10 01:59:32;;;;;;;3.00;2.10;;;;;;;4.95;100.00;96063.66;4980320;28;20215;-71
2023/01/10 02:02:05;;;;;;;4.00;2.50;;;;;;;4.89;100.00;96063.41;4979096;28;20199;-71
2023/01/10 02:04:37;;;;;;;4.87;2.07;;;;;;;4.90;100.00;96065.88;4979075;28;20214;-70
2023/01/10 02:07:04;;;;;;;7.33;2.40;;;;;;;4.64;100.00;96071.91;4979585;28;20231;-71
2023/01/10 02:09:42;;;;;;;5.53;2.33;;;;;;;4.84;100.00;96069.06;4980388;28;20904;-70
2023/01/10 02:12:10;;;;;;;2.90;2.40;;;;;;;4.66;100.00;96075.22;4979528;28;20235;-70
2023/01/10 02:14:38;;;;;;;3.53;1.60;;;;;;;4.70;100.00;96080.94;4979330;28;20293;-70
2023/01/10 02:17:09;;;;;;;4.83;2.30;;;;;;;4.85;100.00;96081.16;4979675;28;20246;-70
2023/01/10 02:19:48;;;;;;;3.90;2.17;;;;;;;4.88;100.00;96091.28;4979995;28;20207;-71
2023/01/10 02:22:57;;;;;;;3.00;2.10;;;;;;;5.04;100.00;96091.50;4979893;28;20291;-70
2023/01/10 02:26:08;;;;;;;2.20;1.80;;;;;;;4.96;100.00;96094.00;4979091;28;20211;-70
2023/01/10 02:29:23;;;;;;;4.70;1.93;;;;;;;4.91;100.00;96093.63;4977472;28;20214;-70
2023/01/10 02:32:15;;;;;;;3.57;2.13;;;;;;;4.76;100.00;96094.28;4938022;28;20234;-70
2023/01/10 02:34:57;;;;;;;2.20;1.37;;;;;;;4.86;100.00;96085.41;4976293;28;20223;-70
2023/01/10 02:37:37;;;;;;;2.60;2.00;;;;;;;4.84;100.00;96097.78;4979334;28;20223;-71
2023/01/10 02:40:12;;;;;;;4.30;2.67;;;;;;;4.77;100.00;96095.88;4980612;28;20214;-70
2023/01/10 02:42:46;;;;;;;4.67;2.33;;;;;;;4.79;100.00;96098.38;4979324;28;20203;-70
2023/01/10 02:45:21;;;;;;;2.13;1.47;;;;;;;4.77;100.00;96108.13;4978288;28;20203;-70
2023/01/10 02:47:49;;;;;;;2.53;1.70;;;;;;;4.80;100.00;96113.03;4979725;28;20233;-70
2023/01/10 02:50:35;;;;;;;2.20;2.00;;;;;;;4.73;100.00;96115.41;4978910;28;20218;-70
2023/01/10 02:53:06;;;;;;;2.50;1.73;;;;;;;4.73;100.00;96117.22;4978546;28;20230;-70
2023/01/10 02:55:44;;;;;;;3.63;1.83;;;;;;;4.65;100.00;96119.72;4978539;28;20217;-70
2023/01/10 02:58:20;;;;;;;1.93;1.33;;;;;;;4.63;100.00;96134.69;4978997;28;20225;-70
2023/01/10 03:00:57;;;;;;;2.50;1.40;;;;;;;4.68;100.00;96137.69;4978992;28;20210;-70
2023/01/10 03:03:35;;;;;;;3.33;2.00;;;;;;;4.70;100.00;96140.97;4978986;28;20209;-71
2023/01/10 03:06:19;;;;;;;2.87;1.40;;;;;;;4.74;100.00;96144.97;4978733;28;20230;-70
2023/01/10 03:08:53;;;;;;;2.67;1.80;;;;;;;4.72;100.00;96158.13;4977031;28;20203;-70
2023/01/10 03:11:38;;;;;;;2.00;1.57;;;;;;;4.77;100.00;96149.88;4978534;28;20238;-70
2023/01/10 03:14:08;;;;;;;1.83;1.43;;;;;;;4.68;100.00;96150.75;4976617;28;20498;-70
2023/01/10 03:16:37;;;;;;;3.33;1.80;;;;;;;4.61;100.00;96147.06;4978541;28;20595;-70
2023/01/10 03:19:09;;;;;;;3.10;1.50;;;;;;;4.65;100.00;96149.25;4978441;28;20685;-70
2023/01/10 03:21:38;;;;;;;3.00;1.70;;;;;;;4.56;100.00;96159.72;4978835;28;20297;-70
2023/01/10 03:24:09;;;;;;;2.10;1.43;;;;;;;4.64;100.00;96162.44;4977587;28;20206;-70
2023/01/10 03:26:47;;;;;;;7.80;1.90;;;;;;;4.62;100.00;96175.63;4978704;28;20223;-71
2023/01/10 03:29:19;;;;;;;3.60;1.80;;;;;;;4.72;100.00;96180.81;4979027;28;20207;-70
2023/01/10 03:31:51;;;;;;;3.47;1.43;;;;;;;4.71;100.00;96184.38;4979509;28;20226;-71
2023/01/10 03:34:20;;;;;;;1.77;1.17;;;;;;;4.68;100.00;96187.28;4978780;28;20213;-71
2023/01/10 03:36:52;;;;;;;2.17;1.43;;;;;;;4.77;100.00;96187.25;4978250;28;20226;-70
2023/01/10 03:39:25;;;;;;;1.50;0.93;;;;;;;4.81;100.00;96193.00;4978268;28;20211;-70
2023/01/10 03:41:59;;;;;;;1.20;1.00;;;;;;;4.77;100.00;96200.28;4978434;28;20204;-70
2023/01/10 03:44:43;;;;;;;1.10;1.00;;;;;;;4.80;100.00;96207.84;4977892;28;20212;-70
2023/01/10 03:47:15;;;;;;;1.10;1.00;;;;;;;4.68;100.00;96206.38;4977839;28;20242;-71
2023/01/10 03:49:47;;;;;;;2.30;1.43;;;;;;;4.56;100.00;96212.72;4978727;28;20210;-70
2023/01/10 03:52:16;;;;;;;1.93;0.83;;;;;;;4.51;100.00;96227.16;4978902;28;20719;-71
2023/01/10 03:54:44;;;;;;;1.20;0.73;;;;;;;4.47;100.00;96231.84;4977822;28;20216;-70
2023/01/10 03:57:16;;;;;;;0.90;0.90;;;;;;;4.55;100.00;96231.13;4978024;28;20231;-70
2023/01/10 03:59:43;;;;;;;1.37;1.23;;;;;;;4.38;100.00;96244.91;4978665;28;20218;-70
2023/01/10 04:02:10;;;;;;;0.80;0.70;;;;;;;4.41;100.00;96248.03;4978254;28;20231;-70
2023/01/10 04:04:36;;;;;;;1.20;0.97;;;;;;;4.64;100.00;96256.38;4977255;28;20206;-70
2023/01/10 04:07:04;;;;;;;0.63;0.63;;;;;;;4.54;100.00;96260.78;4977910;28;20234;-70
2023/01/10 04:09:31;;;;;;;0.57;0.50;;;;;;;4.46;100.00;96268.50;4978132;28;20226;-70
2023/01/10 04:11:57;;;;;;;1.50;0.73;;;;;;;4.44;100.00;96275.63;4977684;28;20230;-70
2023/01/10 04:14:24;;;;;;;1.17;0.50;;;;;;;4.39;100.00;96276.06;4977219;28;20219;-71
2023/01/10 04:16:50;;;;;;;0.50;0.50;;;;;;;4.45;100.00;96277.28;4977276;28;20231;-70
2023/01/10 04:19:17;;;;;;;0.40;0.40;;;;;;;4.40;100.00;96282.94;4977735;28;20203;-71
2023/01/10 04:21:43;;;;;;;1.03;0.60;;;;;;;4.29;100.00;96284.88;4978231;28;20210;-70
2023/01/10 04:24:11;;;;;;;0.63;0.60;;;;;;;4.43;100.00;96287.88;4978434;28;20213;-71
2023/01/10 04:26:38;;;;;;;0.53;0.53;;;;;;;4.34;100.00;96288.69;4981435;28;20690;-70
2023/01/10 04:29:05;;;;;;;0.93;0.53;;;;;;;4.34;100.00;96296.53;4981592;28;20237;-71
2023/01/10 04:31:31;;;;;;;0.60;0.60;;;;;;;4.39;100.00;96309.97;4982493;28;20250;-70
2023/01/10 04:33:58;;;;;;;1.00;0.60;;;;;;;4.28;100.00;96301.47;4980629;28;20202;-70
2023/01/10 04:36:25;;;;;;;1.13;0.57;;;;;;;4.28;100.00;96311.91;4982160;28;20283;-70
2023/01/10 04:38:51;;;;;;;0.80;0.80;;;;;;;4.30;100.00;96308.19;4981238;28;20211;-70
2023/01/10 04:41:19;;;;;;;1.90;0.70;;;;;;;4.38;100.00;96317.94;4981727;28;20215;-71
2023/01/10 04:43:46;;;;;;;1.17;0.60;;;;;;;4.22;100.00;96317.66;4980604;28;20693;-70
2023/01/10 04:46:12;;;;;;;2.03;0.97;;;;;;;4.23;100.00;96324.53;4981302;28;20864;-70
2023/01/10 04:48:38;;;;;;;0.77;0.73;;;;;;;4.21;100.00;96328.22;4981021;28;20211;-70
2023/01/10 04:51:05;;;;;;;1.13;0.70;;;;;;;4.16;100.00;96344.25;4982068;28;20218;-70
2023/01/10 04:53:32;;;;;;;1.60;0.90;;;;;;;4.13;100.00;96344.56;4980874;28;20238;-70
2023/01/10 04:56:02;;;;;;;1.50;0.80;;;;;;;4.32;100.00;96347.19;4980770;28;20244;-71
2023/01/10 04:58:31;;;;;;;1.50;1.13;;;;;;;4.27;100.00;96347.56;4980643;28;20211;-70
2023/01/10 05:00:58;;;;;;;1.33;0.90;;;;;;;4.23;100.00;96361.03;4981885;28;20207;-70
2023/01/10 05:03:24;;;;;;;2.30;1.40;;;;;;;4.38;100.00;96367.50;4981325;28;20207;-70
2023/01/10 05:05:51;;;;;;;0.60;0.60;;;;;;;4.32;100.00;96373.25;4979962;28;20199;-70
2023/01/10 05:08:17;;;;;;;0.97;0.93;;;;;;;4.23;100.00;96374.88;4980945;28;20221;-70
2023/01/10 05:10:44;;;;;;;0.83;0.70;;;;;;;4.29;100.00;96382.19;4981505;28;20667;-70
2023/01/10 05:13:10;;;;;;;2.80;1.17;;;;;;;4.31;100.00;96382.84;4980435;28;20237;-71
2023/01/10 05:15:38;;;;;;;1.17;0.80;;;;;;;4.29;100.00;96387.41;4980360;28;20237;-70
2023/01/10 05:18:04;;;;;;;1.60;1.03;;;;;;;4.22;100.00;96396.69;4981177;28;20214;-70
2023/01/10 05:20:31;;;;;;;1.93;1.00;;;;;;;4.35;100.00;96406.88;4981075;28;20218;-71
2023/01/10 05:22:57;;;;;;;4.63;1.40;;;;;;;4.30;100.00;96414.28;4980322;28;20207;-71
2023/01/10 05:25:24;;;;;;;1.20;1.00;;;;;;;4.37;100.00;96418.03;4980516;28;20213;-70
2023/01/10 05:27:50;;;;;;;1.43;0.90;;;;;;;4.42;100.00;96426.28;4980507;28;20235;-70
2023/01/10 05:30:17;;;;;;;2.90;1.03;;;;;;;4.49;100.00;96429.97;4980668;28;20214;-71
2023/01/10 05:32:45;;;;;;;0.97;0.87;;;;;;;4.46;100.00;96438.09;4980950;28;20226;-70
2023/01/10 05:35:11;;;;;;;1.50;0.93;;;;;;;4.49;100.00;96440.41;4979164;28;20213;-71
2023/01/10 05:37:38;;;;;;;2.00;1.13;;;;;;;4.62;100.00;96452.25;4979745;28;20228;-70
2023/01/10 05:40:06;;;;;;;1.13;0.93;;;;;;;4.59;100.00;96447.28;4980347;28;21018;-70
2023/01/10 05:42:33;;;;;;;0.47;0.47;;;;;;;4.55;100.00;96456.34;4980218;28;20210;-70
2023/01/10 05:44:59;;;;;;;1.43;1.07;;;;;;;4.66;100.00;96458.00;4979505;28;20214;-71
2023/01/10 05:47:26;;;;;;;7.03;1.57;;;;;;;4.74;100.00;96464.22;4980396;28;20227;-71
2023/01/10 05:49:53;;;;;;;0.90;0.87;;;;;;;4.75;100.00;96478.06;4979992;28;20714;-71
2023/01/10 05:52:20;;;;;;;3.57;1.17;;;;;;;4.61;100.00;96479.31;4980206;28;20242;-70
2023/01/10 05:54:47;;;;;;;2.60;1.00;;;;;;;4.59;100.00;96485.63;4979753;28;20207;-71
2023/01/10 05:57:13;;;;;;;2.33;0.70;;;;;;;4.63;100.00;96476.56;4980374;28;20234;-71
2023/01/10 05:59:40;;;;;;;3.50;1.70;;;;;;;4.72;100.00;96488.78;4981145;28;20215;-70
2023/01/10 06:02:06;;;;;;;5.30;1.40;;;;;;;4.71;100.00;96490.59;4979600;28;20231;-71
2023/01/10 06:04:33;;;;;;;1.77;1.07;;;;;;;4.75;100.00;96502.41;4979841;28;20222;-70
2023/01/10 06:07:00;;;;;;;6.67;1.77;;;;;;;4.78;100.00;96509.16;4980011;28;20231;-71
2023/01/10 06:09:27;;;;;;;2.53;1.30;;;;;;;4.69;100.00;96504.72;4979351;28;20211;-71
2023/01/10 06:11:53;;;;;;;7.63;2.07;;;;;;;4.81;100.00;96508.84;4979886;28;20675;-71
2023/01/10 06:14:20;;;;;;;3.20;1.40;;;;;;;4.83;100.00;96500.75;4979898;28;20745;-71
2023/01/10 06:16:46;;;;;;;5.20;1.50;;;;;;;4.90;100.00;96507.09;4979096;28;20238;-71
2023/01/10 06:19:13;;;;;;;3.10;1.90;;;;;;;4.85;100.00;96514.50;4979321;28;20211;-71
2023/01/10 06:21:39;;;;;;;5.67;1.23;;;;;;;4.96;100.00;96524.84;4980516;28;20207;-71
2023/01/10 06:24:08;;;;;;;4.17;1.90;;;;;;;5.05;100.00;96528.41;4978712;28;20614;-71
2023/01/10 06:26:34;;;;;;;4.17;1.50;;;;;;;4.84;100.00;96531.13;4979236;28;20230;-71
2023/01/10 06:29:00;;;;;;;6.83;2.00;;;;;;;4.97;100.00;96542.13;4979766;28;20247;-71
2023/01/10 06:31:27;;;;;;;5.13;1.60;;;;;;;5.00;100.00;96541.03;4979547;28;20214;-71
2023/01/10 06:33:54;;;;;;;2.03;1.50;;;;;;;4.83;100.00;96560.78;4978805;28;21029;-71
2023/01/10 06:36:20;;;;;;;2.43;1.27;;;;;;;4.72;100.00;96567.09;4979308;28;20223;-71
2023/01/10 06:38:47;;;;;;;3.20;1.30;;;;;;;4.77;100.00;96570.13;4978995;28;20206;-70
2023/01/10 06:41:15;;;;;;;2.00;1.43;;;;;;;4.92;100.00;96575.66;4978517;28;20203;-70
2023/01/10 06:43:44;;;;;;;4.33;1.23;;;;;;;4.89;100.00;96578.53;4979056;28;20207;-71
2023/01/10 06:46:10;;;;;;;2.30;1.17;;;;;;;5.00;100.00;96594.09;4978648;28;20235;-70
2023/01/10 06:48:37;;;;;;;3.70;1.30;;;;;;;5.09;100.00;96590.69;4979090;28;20277;-70
2023/01/10 06:51:04;;;;;;;1.80;1.30;;;;;;;4.99;100.00;96602.03;4978883;28;20203;-70
2023/01/10 06:53:30;;;;;;;8.70;1.43;;;;;;;5.02;100.00;96600.00;4979155;28;20230;-70
2023/01/10 06:55:57;;;;;;;2.17;1.30;;;;;;;5.00;100.00;96606.31;4978269;28;20227;-70
2023/01/10 06:58:24;;;;;;;1.13;0.80;;;;;;;5.04;100.00;96613.75;4979141;28;20207;-70
2023/01/10 07:00:51;;;;;;;1.23;1.03;;;;;;;5.01;100.00;96616.63;4979291;28;20214;-70
2023/01/10 07:03:17;;;;;;;5.00;1.60;;;;;;;4.93;100.00;96629.53;4978627;28;20569;-70
2023/01/10 07:05:44;;;;;;;4.27;1.60;;;;;;;5.01;100.00;96623.66;4978277;28;20203;-70
2023/01/10 07:08:10;;;;;;;2.17;1.37;;;;;;;5.07;100.00;96636.19;4978604;28;20790;-70
2023/01/10 07:10:39;;;;;;;2.03;1.27;;;;;;;5.14;100.00;96643.34;4978718;28;20203;-70
2023/01/10 07:13:06;;;;;;;5.27;2.70;;;;;;;5.13;100.00;96652.13;4978471;28;20227;-70
2023/01/10 07:15:33;;;;;;;7.73;2.00;;;;;;;5.21;100.00;96651.47;4978539;28;20226;-70
2023/01/10 07:18:00;;;;;;;5.10;1.70;;;;;;;5.21;100.00;96654.91;4978782;28;20230;-71
2023/01/10 07:20:27;;;;;;;4.40;1.57;;;;;;;5.15;100.00;96658.03;4979144;28;20210;-70
2023/01/10 07:22:54;;;;;;;3.70;1.60;;;;;;;5.10;100.00;96670.66;4978660;28;20203;-70
2023/01/10 07:25:21;;;;;;;3.47;1.50;;;;;;;4.90;100.00;96671.59;4977895;28;20637;-71
2023/01/10 07:27:47;;;;;;;2.43;1.67;;;;;;;4.91;100.00;96683.69;4978095;28;20230;-70
2023/01/10 07:30:14;;;;;;;6.83;1.70;;;;;;;5.10;100.00;96686.34;4978362;28;20207;-71
2023/01/10 07:32:42;;;;;;;7.20;1.67;;;;;;;5.22;100.00;96687.91;4977843;28;20227;-71
2023/01/10 07:35:09;;;;;;;4.33;1.67;;;;;;;5.21;100.00;96691.47;4977775;28;20203;-71
2023/01/10 07:37:35;;;;;;;1.90;1.37;;;;;;;5.28;100.00;96689.97;4978372;28;20236;-70
2023/01/10 07:40:02;;;;;;;3.30;1.57;;;;;;;5.25;100.00;96699.88;4977798;28;21297;-70
2023/01/10 07:42:28;;;;;;;4.57;1.73;;;;;;;5.18;100.00;96696.97;4978314;28;20245;-71
2023/01/10 07:44:55;;;;;;;5.43;2.00;;;;;;;5.18;100.00;96711.78;4977323;28;20299;-71
2023/01/10 07:47:21;;;;;;;5.77;2.07;;;;;;;5.13;100.00;96709.59;4978049;28;20235;-71
2023/01/10 07:49:50;;;;;;;5.53;2.17;;;;;;;5.31;100.00;96715.84;4978896;28;20203;-71
2023/01/10 07:52:16;;;;;;;4.73;1.53;;;;;;;5.12;100.00;96718.38;4978659;28;20590;-71
2023/01/10 07:54:42;;;;;;;7.17;1.90;;;;;;;5.17;100.00;96728.44;4977786;28;20210;-70
2023/01/10 07:57:09;;;;;;;2.37;1.63;;;;;;;5.24;100.00;96735.59;4977491;28;20234;-71
2023/01/10 07:59:35;;;;;;;8.40;2.50;;;;;;;5.33;100.00;96724.34;4978311;28;20203;-71
2023/01/10 08:02:02;;;;;;;4.53;2.17;;;;;;;5.19;100.00;96735.16;4978022;28;20216;-70
2023/01/10 08:04:28;;;;;;;6.53;2.77;;;;;;;5.38;100.00;96740.47;4977012;28;20207;-71
2023/01/10 08:06:56;;;;;;;7.23;2.40;;;;;;;5.48;100.00;96746.53;4978299;28;20238;-71
2023/01/10 08:09:22;;;;;;;7.77;3.07;;;;;;;5.32;100.00;96751.47;4977591;28;20210;-70
2023/01/10 08:11:49;;;;;;;8.30;1.70;;;;;;;5.33;100.00;96755.72;4977947;28;20203;-70
2023/01/10 08:14:15;;;;;;;5.73;1.27;;;;;;;5.39;100.00;96756.97;4977215;28;20223;-71
2023/01/10 08:16:41;;;;;;;3.50;1.80;;;;;;;5.27;100.00;96774.53;4978021;28;20243;-70
2023/01/10 08:19:08;;;;;;;5.90;2.07;;;;;;;5.23;100.00;96773.16;4977578;28;20211;-70
2023/01/10 08:21:34;;;;;;;8.53;1.87;;;;;;;5.35;100.00;96766.06;4978417;28;20918;-70
2023/01/10 08:24:02;;;;;;;6.67;1.80;;;;;;;5.34;100.00;96767.81;4976989;28;20203;-70
2023/01/10 08:26:29;;;;;;;3.60;1.27;;;;;;;5.17;100.00;96762.41;4977369;28;20236;-71
2023/01/10 08:28:55;;;;;;;3.17;1.40;;;;;;;5.19;100.00;96763.91;4977775;28;20210;-70
2023/01/10 08:31:21;;;;;;;4.00;1.30;;;;;;;5.27;100.00;96756.25;4978072;28;20207;-70
2023/01/10 08:33:48;;;;;;;4.83;1.10;;;;;;;5.35;100.00;96764.25;4976809;28;20226;-70
2023/01/10 08:36:16;;;;;;;2.70;1.30;;;;;;;5.38;100.00;96779.66;4977461;28;20227;-70
2023/01/10 08:38:42;;;;;;;5.57;1.27;;;;;;;5.56;100.00;96780.69;4977718;28;20302;-70
2023/01/10 08:41:10;;;;;;;11.73;1.40;;;;;;;5.59;99.89;96788.28;4977727;28;20226;-70
2023/01/10 08:43:37;;;;;;;3.60;1.07;;;;;;;5.42;100.00;96801.13;4977463;28;20208;-70
2023/01/10 08:46:03;;;;;;;1.67;0.90;;;;;;;5.41;100.00;96805.53;4977307;28;20234;-70
2023/01/10 08:48:30;;;;;;;9.77;1.70;;;;;;;5.36;100.00;96814.72;4977312;28;20223;-70
2023/01/10 08:50:56;;;;;;;2.50;1.27;;;;;;;5.48;100.00;96811.88;4977578;28;20695;-71
2023/01/10 08:53:24;;;;;;;4.73;1.43;;;;;;;5.37;100.00;96806.75;4977182;28;20228;-70
2023/01/10 08:55:51;;;;;;;3.27;1.07;;;;;;;5.34;100.00;96812.25;4976721;28;20219;-70
2023/01/10 08:58:18;;;;;;;2.40;1.27;;;;;;;5.61;100.00;96820.31;4977514;28;20211;-70
2023/01/10 09:00:45;;;;;;;5.70;1.40;;;;;;;5.44;100.00;96829.59;4978247;28;20207;-70
2023/01/10 09:03:11;;;;;;;5.83;1.20;;;;;;;5.35;100.00;96824.34;4977779;28;20206;-70
2023/01/10 09:05:38;;;;;;;3.53;0.97;;;;;;;5.33;100.00;96828.88;4976983;28;20207;-70
2023/01/10 09:08:04;;;;;;;3.33;0.93;;;;;;;5.33;97.17;96831.47;4977014;28;20207;-70
2023/01/10 09:10:31;;;;;;;6.20;1.00;;;;;;;5.40;96.84;96837.84;4978248;28;20209;-70
2023/01/10 09:13:00;;;;;;;3.47;1.40;;;;;;;5.29;97.44;96845.78;4981168;28;20233;-70
2023/01/10 09:15:30;;;;;;;3.60;1.10;;;;;;;5.40;96.04;96853.53;4980231;28;20628;-70
2023/01/10 09:17:58;;;;;;;9.23;1.63;;;;;;;5.45;95.18;96859.19;4980705;28;20223;-70
2023/01/10 09:20:26;;;;;;;5.10;1.53;;;;;;;5.60;95.85;96866.56;4980148;28;20753;-70
2023/01/10 09:22:53;;;;;;;4.83;1.60;;;;;;;5.55;96.07;96867.91;4980836;28;20207;-70
2023/01/10 09:25:20;;;;;;;6.20;1.73;;;;;;;5.54;97.17;96866.25;4981308;28;20210;-70
2023/01/10 09:27:46;;;;;;;5.73;1.63;;;;;;;5.44;99.65;96860.16;4981437;28;20226;-70
2023/01/10 09:30:14;;;;;;;6.03;1.70;;;;;;;5.48;98.57;96857.13;4980355;28;20211;-70
2023/01/10 09:32:41;;;;;;;8.70;1.50;;;;;;;5.49;99.99;96860.59;4980691;28;20210;-70
2023/01/10 09:35:08;;;;;;;5.87;1.17;;;;;;;5.54;98.56;96869.69;4980391;28;20238;-70
2023/01/10 09:37:36;;;;;;;1.83;0.90;;;;;;;5.63;97.98;96866.28;4980671;28;20730;-70
2023/01/10 09:40:05;;;;;;;3.30;1.20;;;;;;;5.57;98.04;96855.53;4980831;28;20211;-70
2023/01/10 09:42:47;;;;;;;10.13;1.60;;;;;;;5.72;98.70;96862.06;4980259;28;20298;-70
2023/01/10 09:45:18;;;;;;;5.83;1.77;;;;;;;5.59;99.16;96869.31;4979752;28;20218;-70
2023/01/10 09:47:53;;;;;;;7.77;1.83;;;;;;;5.73;100.00;96871.56;4979706;28;21049;-70
2023/01/10 09:50:28;;;;;;;4.07;1.40;;;;;;;5.69;100.00;96881.44;4980979;28;20198;-71
2023/01/10 09:53:02;;;;;;;4.93;1.70;;;;;;;5.66;100.00;96880.88;4980360;28;20241;-71
2023/01/10 09:55:31;;;;;;;2.83;1.07;;;;;;;5.63;100.00;96886.38;4980109;28;21105;-70
2023/01/10 09:58:00;;;;;;;12.83;3.47;;;;;;;5.71;100.00;96891.78;4979909;28;20227;-70
2023/01/10 10:00:35;;;;;;;7.67;2.20;;;;;;;5.90;100.00;96897.09;4980314;28;20215;-70
2023/01/10 10:03:12;;;;;;;8.03;2.20;;;;;;;5.68;100.00;96900.69;4979954;28;20229;-69
2023/01/10 10:05:39;;;;;;;5.40;1.60;;;;;;;5.67;100.00;96904.28;4979521;28;20210;-70
2023/01/10 10:08:11;;;;;;;4.27;1.60;;;;;;;5.70;99.96;96895.34;4979960;28;20203;-69
2023/01/10 10:10:39;;;;;;;7.57;2.30;;;;;;;5.80;99.66;96897.06;4980473;28;20660;-69
2023/01/10 10:13:19;;;;;;;10.43;2.87;;;;;;;5.86;99.19;96895.72;4979573;28;20211;-69
2023/01/10 10:15:53;;;;;;;6.60;3.00;;;;;;;6.04;99.50;96895.75;4979158;28;20211;-69
2023/01/10 10:18:34;;;;;;;10.97;2.57;;;;;;;5.94;98.56;96895.88;4979996;28;20302;-69
2023/01/10 10:21:06;;;;;;;9.43;2.80;;;;;;;5.86;99.87;96898.34;4979666;28;20207;-69
2023/01/10 10:23:55;;;;;;;7.13;2.73;;;;;;;5.91;98.92;96888.31;4978880;28;20199;-69
2023/01/10 10:26:28;;;;;;;9.67;3.13;;;;;;;6.05;96.36;96902.66;4970867;28;20240;-69
2023/01/10 10:29:21;;;;;;;8.70;2.80;;;;;;;6.03;94.68;96895.91;4979263;28;20203;-69
2023/01/10 10:32:08;;;;;;;10.47;2.20;;;;;;;6.05;93.54;96888.75;4977901;28;20199;-70
2023/01/10 10:34:41;;;;;;;4.97;2.20;;;;;;;6.04;94.45;96890.53;4973345;28;20231;-69
2023/01/10 10:37:14;;;;;;;5.60;1.50;;;;;;;6.03;95.79;96889.84;4977455;28;21347;-70
2023/01/10 10:39:45;;;;;;;3.97;1.73;;;;;;;6.08;96.63;96891.94;4978127;28;20239;-69
2023/01/10 10:42:14;;;;;;;4.30;1.40;;;;;;;6.01;97.75;96878.69;4978286;28;20218;-69
2023/01/10 10:44:45;;;;;;;3.50;1.37;;;;;;;5.91;96.91;96880.47;4977739;28;20204;-69
2023/01/10 10:47:15;;;;;;;1.43;0.87;;;;;;;5.99;97.24;96875.38;4979080;28;20227;-70
2023/01/10 10:49:50;;;;;;;3.53;1.47;;;;;;;6.04;95.83;96870.59;4978796;28;20226;-71
2023/01/10 10:52:23;;;;;;;14.43;1.80;;;;;;;6.17;96.46;96872.81;4977810;28;20751;-70
2023/01/10 10:54:51;;;;;;;3.10;0.97;;;;;;;6.04;97.33;96881.03;4976693;28;20226;-70
2023/01/10 10:57:18;;;;;;;2.77;1.13;;;;;;;6.11;95.18;96888.22;4978585;28;20223;-70
2023/01/10 10:59:49;;;;;;;1.97;0.93;;;;;;;6.32;95.02;96884.53;4977175;28;20210;-70
2023/01/10 11:02:24;;;;;;;7.47;1.60;;;;;;;6.50;94.48;96884.69;4977915;28;20215;-70
2023/01/10 11:04:56;;;;;;;3.63;1.53;;;;;;;6.27;94.40;96899.00;4976508;28;20199;-70
2023/01/10 11:07:24;;;;;;;3.13;1.53;;;;;;;6.20;96.19;96903.94;4977488;28;20238;-70
2023/01/10 11:09:56;;;;;;;3.20;1.50;;;;;;;6.26;96.34;96907.78;4977773;28;20583;-69
2023/01/10 11:12:29;;;;;;;3.83;1.30;;;;;;;6.13;97.03;96900.19;4977778;28;20243;-69
2023/01/10 11:14:56;;;;;;;5.53;1.53;;;;;;;5.95;96.77;96900.16;4976834;28;20242;-69
2023/01/10 11:17:25;;;;;;;9.50;2.27;;;;;;;5.93;97.38;96897.69;4977033;28;20223;-69
2023/01/10 11:19:59;;;;;;;4.07;1.93;;;;;;;5.98;98.29;96899.88;4975705;28;20206;-69
2023/01/10 11:22:27;;;;;;;2.17;1.37;;;;;;;5.90;98.68;96887.47;4977447;28;20211;-69
2023/01/10 11:24:56;;;;;;;1.80;1.37;;;;;;;5.96;99.19;96888.72;4976009;28;20195;-69
2023/01/10 11:27:25;;;;;;;2.30;1.07;;;;;;;5.84;99.82;96889.78;4977144;28;20235;-69
2023/01/10 11:29:56;;;;;;;2.77;1.13;;;;;;;5.74;100.00;96889.72;4975997;28;20203;-69
2023/01/10 11:32:32;;;;;;;5.00;1.63;;;;;;;5.97;100.00;96886.00;4974630;28;20203;-69
2023/01/10 11:35:02;;;;;;;3.60;1.20;;;;;;;6.07;100.00;96881.59;4975442;28;20231;-69
2023/01/10 11:37:31;;;;;;;3.77;1.70;;;;;;;5.89;100.00;96875.34;4977459;28;20227;-69
2023/01/10 11:40:18;;;;;;;5.50;1.63;;;;;;;6.11;100.00;96889.03;4976053;28;20203;-69
2023/01/10 11:42:45;;;;;;;4.90;1.70;;;;;;;5.85;100.00;96880.97;4976356;28;20689;-69
2023/01/10 11:45:23;;;;;;;3.47;1.10;;;;;;;5.86;100.00;96877.41;4975757;28;20203;-69
2023/01/10 11:47:54;;;;;;;7.50;1.30;;;;;;;5.66;100.00;96873.03;4976264;28;20931;-69
2023/01/10 11:50:24;;;;;;;4.73;1.87;;;;;;;5.70;100.00;96874.41;4976554;28;20235;-69